createdAt,value
2023-05-03T00:00:21.146Z,1.00
2023-05-03T00:02:49.274Z,1.00
2023-05-03T00:05:17.931Z,1.00
2023-05-03T00:07:47.348Z,1.00
2023-05-03T00:10:16.463Z,1.00
2023-05-03T00:12:45.943Z,1.00
2023-05-03T00:15:14.039Z,1.00
2023-05-03T00:17:42.250Z,1.00
2023-05-03T00:20:12.221Z,1.00
2023-05-03T00:22:40.311Z,1.00
2023-05-03T00:25:09.599Z,1.00
2023-05-03T00:27:38.475Z,1.00
2023-05-03T00:30:09.720Z,1.00
2023-05-03T00:32:38.045Z,1.00
2023-05-03T00:35:06.766Z,1.00
2023-05-03T00:37:34.877Z,1.00
2023-05-03T00:40:04.898Z,1.00
2023-05-03T00:42:36.326Z,1.00
2023-05-03T00:45:06.246Z,1.00
2023-05-03T00:47:37.401Z,1.00
2023-05-03T00:50:06.899Z,1.00
2023-05-03T00:52:36.052Z,1.00
2023-05-03T00:55:04.197Z,1.00
2023-05-03T00:57:32.477Z,4.80
2023-05-03T01:00:01.420Z,4.10
2023-05-03T01:02:29.972Z,15.20
2023-05-03T01:04:59.519Z,51.70
2023-05-03T01:07:36.681Z,46.70
2023-05-03T01:10:19.006Z,53.40
2023-05-03T01:12:56.326Z,70.60
2023-05-03T01:15:40.768Z,37.50
2023-05-03T01:18:13.411Z,99.90
2023-05-03T01:20:47.492Z,99.80
2023-05-03T01:23:23.176Z,99.90
2023-05-03T01:25:54.421Z,99.90
2023-05-03T01:28:22.602Z,99.90
2023-05-03T01:30:53.321Z,99.90
2023-05-03T01:33:29.293Z,99.90
2023-05-03T01:36:02.108Z,99.90
2023-05-03T01:38:34.259Z,99.90
2023-05-03T01:41:10.144Z,99.90
2023-05-03T01:43:39.226Z,99.90
2023-05-03T01:46:07.410Z,99.90
2023-05-03T01:48:35.746Z,99.90
2023-05-03T01:51:03.863Z,99.90
2023-05-03T01:53:31.915Z,99.90
2023-05-03T01:56:00.026Z,99.90
2023-05-03T01:58:29.496Z,99.90
2023-05-03T02:00:58.142Z,99.90
2023-05-03T02:03:26.228Z,99.90
2023-05-03T02:05:54.436Z,99.90
2023-05-03T02:08:22.608Z,99.90
2023-05-03T02:10:50.790Z,99.90
2023-05-03T02:13:18.856Z,99.90
2023-05-03T02:15:48.372Z,99.90
2023-05-03T02:18:18.535Z,99.90
2023-05-03T02:20:46.982Z,99.90
2023-05-03T02:23:15.488Z,99.90
2023-05-03T02:25:43.605Z,99.90
2023-05-03T02:28:11.704Z,99.90
2023-05-03T02:30:39.771Z,99.90
2023-05-03T02:33:09.453Z,99.90
2023-05-03T02:35:37.570Z,99.90
2023-05-03T02:38:05.615Z,99.90
2023-05-03T02:40:33.721Z,99.90
2023-05-03T02:43:02.541Z,99.90
2023-05-03T02:45:30.936Z,99.90
2023-05-03T02:47:59.553Z,99.90
2023-05-03T02:50:29.151Z,99.90
2023-05-03T02:52:57.221Z,1.00
2023-05-03T02:55:25.288Z,99.90
2023-05-03T02:57:53.380Z,99.90
2023-05-03T03:00:21.658Z,1.00
2023-05-03T03:02:50.236Z,99.90
2023-05-03T03:05:18.425Z,99.90
2023-05-03T03:07:48.692Z,99.90
2023-05-03T03:10:16.871Z,99.90
2023-05-03T03:12:45.110Z,99.90
2023-05-03T03:15:13.310Z,99.90
2023-05-03T03:17:41.409Z,1.00
2023-05-03T03:20:11.683Z,99.90
2023-05-03T03:22:40.111Z,99.90
2023-05-03T03:25:11.009Z,99.90
2023-05-03T03:27:39.843Z,99.90
2023-05-03T03:30:10.516Z,99.90
2023-05-03T03:32:38.627Z,99.90
2023-05-03T03:35:08.493Z,99.90
2023-05-03T03:37:36.591Z,99.90
2023-05-03T03:40:05.967Z,99.90
2023-05-03T03:42:35.556Z,99.90
2023-05-03T03:45:04.648Z,99.90
2023-05-03T03:47:32.780Z,1.00
2023-05-03T03:50:02.084Z,1.00
2023-05-03T03:52:30.414Z,99.90
2023-05-03T03:54:58.523Z,99.90
2023-05-03T03:57:30.125Z,99.90
2023-05-03T03:59:59.895Z,99.90
2023-05-03T04:02:28.896Z,99.90
2023-05-03T04:04:56.966Z,99.90
2023-05-03T04:07:25.096Z,1.00
2023-05-03T04:09:53.280Z,1.00
2023-05-03T04:12:21.479Z,1.00
2023-05-03T04:14:49.660Z,1.00
2023-05-03T04:17:19.094Z,1.00
2023-05-03T04:19:47.302Z,1.00
2023-05-03T04:22:15.614Z,1.00
2023-05-03T04:24:44.024Z,1.00
2023-05-03T04:27:14.771Z,1.00
2023-05-03T04:29:42.928Z,1.00
2023-05-03T04:32:11.257Z,1.00
2023-05-03T04:34:42.330Z,99.90
2023-05-03T04:37:10.899Z,99.90
2023-05-03T04:39:38.968Z,99.90
2023-05-03T04:42:07.518Z,99.90
2023-05-03T04:44:35.867Z,99.90
2023-05-03T04:47:04.101Z,99.90
2023-05-03T04:49:32.962Z,1.00
2023-05-03T04:52:02.715Z,1.00
2023-05-03T04:54:30.786Z,1.00
2023-05-03T04:56:58.869Z,99.90
2023-05-03T04:59:26.916Z,99.90
2023-05-03T05:01:55.110Z,99.90
2023-05-03T05:04:23.150Z,99.90
2023-05-03T05:06:52.821Z,1.00
2023-05-03T05:09:26.839Z,99.90
2023-05-03T05:11:57.054Z,99.90
2023-05-03T05:14:27.247Z,99.90
2023-05-03T05:16:55.489Z,1.00
2023-05-03T05:19:23.715Z,99.90
2023-05-03T05:21:52.722Z,99.90
2023-05-03T05:24:20.970Z,99.90
2023-05-03T05:26:50.630Z,1.00
2023-05-03T05:29:18.754Z,99.90
2023-05-03T05:31:46.933Z,99.90
2023-05-03T05:34:15.063Z,99.90
2023-05-03T05:36:43.347Z,99.90
2023-05-03T05:39:11.989Z,99.90
2023-05-03T05:41:40.500Z,99.90
2023-05-03T05:44:09.968Z,99.90
2023-05-03T05:46:38.079Z,99.90
2023-05-03T05:49:07.401Z,99.90
2023-05-03T05:51:35.496Z,99.90
2023-05-03T05:54:03.664Z,99.90
2023-05-03T05:56:31.863Z,99.90
2023-05-03T05:59:01.234Z,99.90
2023-05-03T06:01:32.161Z,99.90
2023-05-03T06:04:00.231Z,99.90
2023-05-03T06:06:29.674Z,99.90
2023-05-03T06:08:57.972Z,99.90
2023-05-03T06:11:26.969Z,99.90
2023-05-03T06:13:55.565Z,1.00
2023-05-03T06:16:23.705Z,99.90
2023-05-03T06:18:53.630Z,99.90
2023-05-03T06:21:22.330Z,99.90
2023-05-03T06:23:50.439Z,1.00
2023-05-03T06:26:18.478Z,1.00
2023-05-03T06:28:47.278Z,1.00
2023-05-03T06:31:15.426Z,8.30
2023-05-03T06:33:43.759Z,1.00
2023-05-03T06:36:13.204Z,1.00
2023-05-03T06:38:41.337Z,1.00
2023-05-03T06:41:09.417Z,1.00
2023-05-03T06:43:37.542Z,1.00
2023-05-03T06:46:06.234Z,1.00
2023-05-03T06:48:34.401Z,1.00
2023-05-03T06:51:02.509Z,1.00
2023-05-03T06:53:32.040Z,1.00
2023-05-03T06:56:00.782Z,1.00
2023-05-03T06:58:29.082Z,99.90
2023-05-03T07:00:57.201Z,1.00
2023-05-03T07:03:25.584Z,99.90
2023-05-03T07:05:53.743Z,99.90
2023-05-03T07:08:21.911Z,99.90
2023-05-03T07:10:51.567Z,99.90
2023-05-03T07:13:19.652Z,99.90
2023-05-03T07:15:48.024Z,99.90
2023-05-03T07:18:16.908Z,99.90
2023-05-03T07:20:46.719Z,99.90
2023-05-03T07:23:15.535Z,99.90
2023-05-03T07:25:44.035Z,99.90
2023-05-03T07:28:13.544Z,99.90
2023-05-03T07:30:41.639Z,99.90
2023-05-03T07:33:09.949Z,99.90
2023-05-03T07:35:39.206Z,18.50
2023-05-03T07:38:07.826Z,18.30
2023-05-03T07:40:37.306Z,27.20
2023-05-03T07:43:05.738Z,1.00
2023-05-03T07:45:35.633Z,18.60
2023-05-03T07:48:04.474Z,25.30
2023-05-03T07:50:32.818Z,1.00
2023-05-03T07:53:01.327Z,1.00
2023-05-03T07:55:31.502Z,1.00
2023-05-03T07:58:00.197Z,1.00
2023-05-03T08:00:28.582Z,1.00
2023-05-03T08:02:58.374Z,1.00
2023-05-03T08:05:29.566Z,1.00
2023-05-03T08:07:57.786Z,1.00
2023-05-03T08:10:26.486Z,1.00
2023-05-03T08:12:54.752Z,1.00
2023-05-03T08:15:22.927Z,1.00
2023-05-03T08:17:51.283Z,1.00
2023-05-03T08:20:21.843Z,1.00
2023-05-03T08:22:50.773Z,1.00
2023-05-03T08:25:20.799Z,1.00
2023-05-03T08:27:49.355Z,1.00
2023-05-03T08:30:17.876Z,1.00
2023-05-03T08:32:46.395Z,1.00
2023-05-03T08:35:15.362Z,1.00
2023-05-03T08:37:45.516Z,1.00
2023-05-03T08:40:15.542Z,1.00
2023-05-03T08:42:45.758Z,1.00
2023-05-03T08:45:16.014Z,1.00
2023-05-03T08:47:45.471Z,1.00
2023-05-03T08:50:14.904Z,1.00
2023-05-03T08:52:46.492Z,1.00
2023-05-03T08:55:15.382Z,1.00
2023-05-03T08:57:43.857Z,1.00
2023-05-03T09:00:13.304Z,1.00
2023-05-03T09:02:42.964Z,1.00
2023-05-03T09:05:35.263Z,1.00
2023-05-03T09:08:07.441Z,1.00
2023-05-03T09:10:39.259Z,1.00
2023-05-03T09:13:08.103Z,1.00
2023-05-03T09:15:37.080Z,1.00
2023-05-03T09:18:12.881Z,1.00
2023-05-03T09:20:42.924Z,1.00
2023-05-03T09:23:13.018Z,99.90
2023-05-03T09:25:46.366Z,99.90
2023-05-03T09:28:15.875Z,99.90
2023-05-03T09:30:45.398Z,99.90
2023-05-03T09:33:20.630Z,99.90
2023-05-03T09:36:07.397Z,99.90
2023-05-03T09:38:38.174Z,1.00
2023-05-03T09:41:07.352Z,99.90
2023-05-03T09:43:36.611Z,99.90
2023-05-03T09:46:14.736Z,1.00
2023-05-03T09:48:43.934Z,99.90
2023-05-03T09:51:14.426Z,99.90
2023-05-03T09:53:44.898Z,99.90
2023-05-03T09:56:13.835Z,99.90
2023-05-03T09:58:43.942Z,99.90
2023-05-03T10:01:13.983Z,99.90
2023-05-03T10:03:45.153Z,99.90
2023-05-03T10:06:23.462Z,99.90
2023-05-03T10:08:56.805Z,99.90
2023-05-03T10:11:27.260Z,99.90
2023-05-03T10:13:56.016Z,99.90
2023-05-03T10:16:28.945Z,99.90
2023-05-03T10:19:05.656Z,99.90
2023-05-03T10:21:43.390Z,99.90
2023-05-03T10:24:14.168Z,99.90
2023-05-03T10:26:43.052Z,99.90
2023-05-03T10:29:49.444Z,99.90
2023-05-03T10:32:40.788Z,99.90
2023-05-03T10:35:11.398Z,99.90
2023-05-03T10:37:42.493Z,99.90
2023-05-03T10:40:15.134Z,99.90
2023-05-03T10:42:46.063Z,99.90
2023-05-03T10:45:28.282Z,99.90
2023-05-03T10:48:24.249Z,99.90
2023-05-03T10:50:53.000Z,99.90
2023-05-03T10:53:38.550Z,99.90
2023-05-03T10:56:09.757Z,99.90
2023-05-03T10:58:39.031Z,99.90
2023-05-03T11:01:08.265Z,99.90
2023-05-03T11:03:45.024Z,99.90
2023-05-03T11:06:32.614Z,99.90
2023-05-03T11:09:01.188Z,99.90
2023-05-03T11:11:31.267Z,99.90
2023-05-03T11:13:59.841Z,99.90
2023-05-03T11:16:28.197Z,99.90
2023-05-03T11:18:56.572Z,99.90
2023-05-03T11:21:24.986Z,99.90
2023-05-03T11:23:53.350Z,99.90
2023-05-03T11:26:26.311Z,99.90
2023-05-03T11:28:56.398Z,99.90
2023-05-03T11:31:24.658Z,99.90
2023-05-03T11:33:52.980Z,99.90
2023-05-03T11:36:21.664Z,99.90
2023-05-03T11:38:49.802Z,99.90
2023-05-03T11:41:19.053Z,99.90
2023-05-03T11:43:55.017Z,99.90
2023-05-03T11:46:33.659Z,99.90
2023-05-03T11:49:03.312Z,99.90
2023-05-03T11:51:31.829Z,99.90
2023-05-03T11:54:12.994Z,99.90
2023-05-03T11:56:50.350Z,99.90
2023-05-03T11:59:20.173Z,99.90
2023-05-03T12:01:51.921Z,99.90
2023-05-03T12:04:20.716Z,99.90
2023-05-03T12:06:54.286Z,99.90
2023-05-03T12:09:27.308Z,99.90
2023-05-03T12:11:56.156Z,99.90
2023-05-03T12:14:26.592Z,99.90
2023-05-03T12:17:00.165Z,99.90
2023-05-03T12:19:32.421Z,99.90
2023-05-03T12:24:34.099Z,99.90
2023-05-03T12:27:03.488Z,99.90
2023-05-03T12:29:35.122Z,99.90
2023-05-03T12:32:06.051Z,99.90
2023-05-03T12:34:36.727Z,99.90
2023-05-03T12:37:06.704Z,99.90
2023-05-03T12:39:39.220Z,99.90
2023-05-03T12:42:09.431Z,99.90
2023-05-03T12:44:42.875Z,99.90
2023-05-03T12:47:16.957Z,99.90
2023-05-03T12:50:00.109Z,99.90
2023-05-03T12:55:03.192Z,99.90
2023-05-03T12:57:35.783Z,99.90
2023-05-03T13:00:13.628Z,99.90
2023-05-03T13:07:55.531Z,99.90
2023-05-03T13:10:24.862Z,99.90
2023-05-03T13:12:54.029Z,99.90
2023-05-03T13:15:25.220Z,99.90
2023-05-03T13:17:54.796Z,99.90
2023-05-03T13:20:23.095Z,99.90
2023-05-03T13:22:51.340Z,99.90
2023-05-03T13:25:19.468Z,99.90
2023-05-03T13:27:50.294Z,99.90
2023-05-03T13:30:18.472Z,99.90
2023-05-03T13:32:46.625Z,99.90
2023-05-03T13:35:16.104Z,99.90
2023-05-03T13:37:44.233Z,99.90
2023-05-03T13:40:14.771Z,99.90
2023-05-03T13:42:42.920Z,99.90
2023-05-03T13:45:12.401Z,99.90
2023-05-03T13:48:04.724Z,99.90
2023-05-03T13:50:31.968Z,99.90
2023-05-03T13:53:00.142Z,99.90
2023-05-03T13:55:28.686Z,99.90
2023-05-03T13:57:56.779Z,99.90
2023-05-03T14:00:25.093Z,99.90
2023-05-03T14:02:53.438Z,99.90
2023-05-03T14:05:21.701Z,99.90
2023-05-03T14:07:51.415Z,99.90
2023-05-03T14:10:19.768Z,99.90
2023-05-03T14:12:48.395Z,99.90
2023-05-03T14:15:16.954Z,99.90
2023-05-03T14:17:48.661Z,99.90
2023-05-03T14:20:17.471Z,99.90
2023-05-03T14:22:50.892Z,99.90
2023-05-03T14:25:19.223Z,99.90
2023-05-03T14:27:47.457Z,99.90
2023-05-03T14:30:16.428Z,99.90
2023-05-03T14:32:44.651Z,99.90
2023-05-03T14:35:13.112Z,99.90
2023-05-03T14:37:41.285Z,99.90
2023-05-03T14:40:11.915Z,99.90
2023-05-03T14:42:40.257Z,99.90
2023-05-03T14:45:11.772Z,99.90
2023-05-03T14:47:40.837Z,99.90
2023-05-03T14:50:10.289Z,99.90
2023-05-03T14:52:38.838Z,99.90
2023-05-03T14:55:08.466Z,99.90
2023-05-03T14:57:38.255Z,99.90
2023-05-03T15:00:14.135Z,99.90
2023-05-03T15:02:45.901Z,99.90
2023-05-03T15:05:14.430Z,99.90
2023-05-03T15:07:44.160Z,99.90
2023-05-03T15:10:13.030Z,99.90
2023-05-03T15:12:43.104Z,99.90
2023-05-03T15:15:15.746Z,99.90
2023-05-03T15:17:44.076Z,99.90
2023-05-03T15:20:15.474Z,99.90
2023-05-03T15:22:43.679Z,99.90
2023-05-03T15:25:12.359Z,99.90
2023-05-03T15:27:42.073Z,99.90
2023-05-03T15:30:12.495Z,99.90
2023-05-03T15:32:40.938Z,99.90
2023-05-03T15:35:09.761Z,99.90
2023-05-03T15:37:38.850Z,99.90
2023-05-03T15:40:10.628Z,99.90
2023-05-03T15:42:39.239Z,99.90
2023-05-03T15:45:11.137Z,99.90
2023-05-03T15:47:40.215Z,99.90
2023-05-03T15:50:09.769Z,99.90
2023-05-03T15:52:38.126Z,99.90
2023-05-03T15:55:07.390Z,99.90
2023-05-03T15:57:35.710Z,99.90
2023-05-03T16:00:06.690Z,99.90
2023-05-03T16:02:37.428Z,99.90
2023-05-03T16:05:06.176Z,99.90
2023-05-03T16:07:34.359Z,99.90
2023-05-03T16:10:02.687Z,99.90
2023-05-03T16:12:31.120Z,99.90
2023-05-03T16:15:00.251Z,99.90
2023-05-03T16:17:28.723Z,99.90
2023-05-03T16:19:59.553Z,99.90
2023-05-03T16:22:28.680Z,99.90
2023-05-03T16:24:56.949Z,99.90
2023-05-03T16:27:25.089Z,99.90
2023-05-03T16:29:54.335Z,99.90
2023-05-03T16:32:22.749Z,99.90
2023-05-03T16:34:50.982Z,99.90
2023-05-03T16:37:22.349Z,99.90
2023-05-03T16:39:50.614Z,99.90
2023-05-03T16:42:19.102Z,99.90
2023-05-03T16:44:47.784Z,99.90
2023-05-03T16:47:15.909Z,99.90
2023-05-03T16:49:44.319Z,99.90
2023-05-03T16:52:12.623Z,99.90
2023-05-03T16:54:43.662Z,99.90
2023-05-03T16:57:12.131Z,99.90
2023-05-03T16:59:40.198Z,99.90
2023-05-03T17:02:08.403Z,99.90
2023-05-03T17:04:36.536Z,99.90
2023-05-03T17:07:04.672Z,99.90
2023-05-03T17:09:32.877Z,99.90
2023-05-03T17:12:03.611Z,99.90
2023-05-03T17:14:31.933Z,99.90
2023-05-03T17:17:00.119Z,99.90
2023-05-03T17:19:28.584Z,99.90
2023-05-03T17:21:56.708Z,99.90
2023-05-03T17:24:24.814Z,99.90
2023-05-03T17:26:55.141Z,99.90
2023-05-03T17:29:24.651Z,99.90
2023-05-03T17:31:52.896Z,99.90
2023-05-03T17:34:22.414Z,99.90
2023-05-03T17:36:50.649Z,99.90
2023-05-03T17:39:18.772Z,99.90
2023-05-03T17:41:46.870Z,99.90
2023-05-03T17:44:15.337Z,99.90
2023-05-03T17:46:45.053Z,99.90
2023-05-03T17:49:13.136Z,99.90
2023-05-03T17:51:41.203Z,99.90
2023-05-03T17:54:09.448Z,99.90
2023-05-03T17:56:37.610Z,99.90
2023-05-03T17:59:05.825Z,99.90
2023-05-03T18:01:33.996Z,99.90
2023-05-03T18:04:03.669Z,99.90
2023-05-03T18:06:32.581Z,99.90
2023-05-03T18:09:00.737Z,99.90
2023-05-03T18:11:28.816Z,99.90
2023-05-03T18:13:57.112Z,99.90
2023-05-03T18:16:25.337Z,99.90
2023-05-03T18:18:54.557Z,99.90
2023-05-03T18:21:24.334Z,99.90
2023-05-03T18:23:54.418Z,99.90
2023-05-03T18:26:24.476Z,99.90
2023-05-03T18:28:53.929Z,99.90
2023-05-03T18:31:22.537Z,99.90
2023-05-03T18:33:50.779Z,99.90
2023-05-03T18:36:19.190Z,99.90
2023-05-03T18:38:53.137Z,99.90
2023-05-03T18:41:21.630Z,99.90
2023-05-03T18:43:52.032Z,99.90
2023-05-03T18:46:21.021Z,99.90
2023-05-03T18:48:49.799Z,99.90
2023-05-03T18:51:19.225Z,99.90
2023-05-03T18:53:49.923Z,99.90
2023-05-03T18:56:18.091Z,99.90
2023-05-03T18:58:48.302Z,99.90
2023-05-03T19:01:16.864Z,99.90
2023-05-03T19:03:45.057Z,99.90
2023-05-03T19:06:13.336Z,99.90
2023-05-03T19:08:43.635Z,99.90
2023-05-03T19:11:14.481Z,99.90
2023-05-03T19:13:44.807Z,99.90
2023-05-03T19:16:13.433Z,99.90
2023-05-03T19:18:42.211Z,99.90
2023-05-03T19:21:12.156Z,99.90
2023-05-03T19:23:40.814Z,99.90
2023-05-03T19:26:08.957Z,99.90
2023-05-03T19:28:38.661Z,99.90
2023-05-03T19:31:07.546Z,99.90
2023-05-03T19:33:36.767Z,99.90
2023-05-03T19:36:07.242Z,99.90
2023-05-03T19:38:36.374Z,99.90
2023-05-03T19:41:08.257Z,99.90
2023-05-03T19:43:38.064Z,99.90
2023-05-03T19:46:06.445Z,99.90
2023-05-03T19:48:34.935Z,99.90
2023-05-03T19:51:05.325Z,99.90
2023-05-03T19:53:33.760Z,99.90
2023-05-03T19:56:03.998Z,99.90
2023-05-03T19:58:33.064Z,99.90
2023-05-03T20:01:04.341Z,99.90
2023-05-03T20:03:34.164Z,99.90
2023-05-03T20:06:02.674Z,99.90
2023-05-03T20:08:31.615Z,99.90
2023-05-03T20:11:00.171Z,99.90
2023-05-03T20:13:30.262Z,99.90
2023-05-03T20:15:58.513Z,99.90
2023-05-03T20:18:28.052Z,99.90
2023-05-03T20:20:56.587Z,99.90
2023-05-03T20:23:25.668Z,99.90
2023-05-03T20:25:54.262Z,99.90
2023-05-03T20:28:23.142Z,99.90
2023-05-03T20:30:51.534Z,99.90
2023-05-03T20:33:19.668Z,99.90
2023-05-03T20:35:49.414Z,99.90
2023-05-03T20:38:18.421Z,99.90
2023-05-03T20:40:46.576Z,99.90
2023-05-03T20:43:14.840Z,99.90
2023-05-03T20:45:42.998Z,99.90
2023-05-03T20:48:11.176Z,99.90
2023-05-03T20:50:39.532Z,99.90
2023-05-03T20:53:08.930Z,99.90
2023-05-03T20:55:38.551Z,99.90
2023-05-03T20:58:06.669Z,99.90
2023-05-03T21:00:34.810Z,99.90
2023-05-03T21:03:03.639Z,99.90
2023-05-03T21:05:31.933Z,99.90
2023-05-03T21:08:00.483Z,99.90
2023-05-03T21:10:30.050Z,99.90
2023-05-03T21:12:58.269Z,99.90
2023-05-03T21:15:26.517Z,99.90
2023-05-03T21:17:54.774Z,99.90
2023-05-03T21:20:23.488Z,99.90
2023-05-03T21:22:51.778Z,99.90
2023-05-03T21:25:20.036Z,99.90
2023-05-03T21:27:49.512Z,99.90
2023-05-03T21:30:19.295Z,99.90
2023-05-03T21:32:49.719Z,99.90
2023-05-03T21:35:18.130Z,99.90
2023-05-03T21:37:47.540Z,99.90
2023-05-03T21:40:16.595Z,99.90
2023-05-03T21:42:45.271Z,99.90
2023-05-03T21:45:16.646Z,99.90
2023-05-03T21:47:44.831Z,99.90
2023-05-03T21:50:13.939Z,99.90
2023-05-03T21:52:42.122Z,99.90
2023-05-03T21:55:10.692Z,99.90
2023-05-03T21:57:38.847Z,99.90
2023-05-03T22:00:14.080Z,99.90
2023-05-03T22:02:43.670Z,99.90
2023-05-03T22:05:13.200Z,99.90
2023-05-03T22:07:41.433Z,99.90
2023-05-03T22:10:10.505Z,99.90
2023-05-03T22:12:38.715Z,99.90
2023-05-03T22:15:08.154Z,99.90
2023-05-03T22:17:36.589Z,99.90
2023-05-03T22:20:07.664Z,99.90
2023-05-03T22:22:35.945Z,99.90
2023-05-03T22:25:04.303Z,99.90
2023-05-03T22:27:32.391Z,99.90
2023-05-03T22:30:00.851Z,99.90
2023-05-03T22:32:29.120Z,99.90
2023-05-03T22:34:57.183Z,99.90
2023-05-03T22:37:26.957Z,99.90
2023-05-03T22:39:55.060Z,99.90
2023-05-03T22:42:23.532Z,99.90
2023-05-03T22:44:51.659Z,99.90
2023-05-03T22:47:20.318Z,99.90
2023-05-03T22:49:48.603Z,99.90
2023-05-03T22:52:16.957Z,99.90
2023-05-03T22:54:46.736Z,99.90
2023-05-03T22:57:14.852Z,99.90
2023-05-03T22:59:46.009Z,99.90
2023-05-03T23:02:14.109Z,99.90
2023-05-03T23:04:42.152Z,99.90
2023-05-03T23:07:10.212Z,99.90
2023-05-03T23:09:38.243Z,99.90
2023-05-03T23:12:08.017Z,99.90
2023-05-03T23:14:36.479Z,99.90
2023-05-03T23:17:04.559Z,99.90
2023-05-03T23:19:32.677Z,99.90
2023-05-03T23:22:00.695Z,99.90
2023-05-03T23:24:28.865Z,99.90
2023-05-03T23:26:57.035Z,99.90
2023-05-03T23:29:26.908Z,99.90
2023-05-03T23:31:55.404Z,99.90
2023-05-03T23:34:24.215Z,99.90
2023-05-03T23:36:52.283Z,99.90
2023-05-03T23:39:20.386Z,99.90
2023-05-03T23:41:48.397Z,99.90
2023-05-03T23:44:16.450Z,99.90
2023-05-03T23:46:45.841Z,99.90
2023-05-03T23:49:13.913Z,99.90
2023-05-03T23:51:41.931Z,99.90
2023-05-03T23:54:09.974Z,99.90
2023-05-03T23:56:38.075Z,99.90
2023-05-03T23:59:06.392Z,99.90
